createdAt,value
2019-04-30T00:02:38.331Z,97.84
2019-04-30T00:05:09.990Z,97.79
2019-04-30T00:07:42.961Z,97.66
2019-04-30T00:10:16.410Z,97.83
2019-04-30T00:12:49.820Z,97.65
2019-04-30T00:15:23.212Z,97.93
2019-04-30T00:17:58.760Z,97.87
2019-04-30T00:20:35.166Z,97.87
2019-04-30T00:23:07.423Z,97.96
2019-04-30T00:25:40.896Z,98.02
2019-04-30T00:28:15.531Z,98.11
2019-04-30T00:30:49.107Z,98.05
2019-04-30T00:33:25.128Z,97.99
2019-04-30T00:35:58.126Z,98.19
2019-04-30T00:38:36.091Z,98.10
2019-04-30T00:41:10.131Z,98.22
2019-04-30T00:43:47.147Z,98.25
2019-04-30T00:46:24.837Z,97.74
2019-04-30T00:48:52.427Z,97.94
2019-04-30T00:51:26.283Z,97.75
2019-04-30T00:54:02.799Z,97.86
2019-04-30T00:56:36.310Z,97.44
2019-04-30T00:59:10.670Z,97.36
2019-04-30T01:01:48.109Z,97.55
2019-04-30T01:04:28.153Z,97.48
2019-04-30T01:07:05.200Z,97.38
2019-04-30T01:09:39.602Z,97.51
2019-04-30T01:12:10.892Z,97.54
2019-04-30T01:14:44.312Z,96.96
2019-04-30T01:17:18.856Z,97.22
2019-04-30T01:19:54.456Z,96.97
2019-04-30T01:22:32.547Z,96.69
2019-04-30T01:25:11.715Z,96.55
2019-04-30T01:27:39.487Z,96.92
2019-04-30T01:30:18.677Z,96.86
2019-04-30T01:32:56.404Z,96.77
2019-04-30T01:35:31.284Z,97.01
2019-04-30T01:38:04.184Z,97.07
2019-04-30T01:40:35.776Z,96.67
2019-04-30T01:43:09.184Z,96.59
2019-04-30T01:45:42.559Z,96.70
2019-04-30T01:48:15.986Z,96.18
2019-04-30T01:50:49.674Z,96.28
2019-04-30T01:53:23.116Z,96.71
2019-04-30T01:56:00.956Z,96.46
2019-04-30T01:58:44.563Z,96.84
2019-04-30T02:01:19.578Z,96.59
2019-04-30T02:03:53.110Z,96.01
2019-04-30T02:06:26.569Z,95.81
2019-04-30T02:09:00.019Z,95.79
2019-04-30T02:11:33.522Z,96.11
2019-04-30T02:14:08.890Z,95.63
2019-04-30T02:16:42.425Z,95.42
2019-04-30T02:19:15.869Z,95.74
2019-04-30T02:21:49.206Z,94.82
2019-04-30T02:24:22.865Z,95.25
2019-04-30T02:26:56.269Z,95.31
2019-04-30T02:29:30.010Z,95.07
2019-04-30T02:32:03.452Z,94.79
2019-04-30T02:34:50.830Z,95.01
2019-04-30T02:37:30.061Z,94.47
2019-04-30T02:40:04.734Z,94.48
2019-04-30T02:42:39.795Z,93.92
2019-04-30T02:45:13.556Z,93.92
2019-04-30T02:47:49.894Z,94.05
2019-04-30T02:50:22.699Z,94.08
2019-04-30T02:53:00.157Z,94.01
2019-04-30T02:55:41.557Z,93.37
2019-04-30T02:58:15.027Z,93.63
2019-04-30T03:00:49.561Z,93.56
2019-04-30T03:03:25.214Z,93.14
2019-04-30T03:05:59.543Z,93.16
2019-04-30T03:08:33.266Z,92.62
2019-04-30T03:11:06.837Z,93.57
2019-04-30T03:13:42.718Z,93.25
2019-04-30T03:16:17.235Z,93.33
2019-04-30T03:18:52.291Z,93.25
2019-04-30T03:21:43.230Z,93.00
2019-04-30T03:24:16.758Z,93.48
2019-04-30T03:26:50.220Z,93.55
2019-04-30T03:29:24.170Z,93.63
2019-04-30T03:32:02.074Z,92.80
2019-04-30T03:34:33.410Z,93.41
2019-04-30T03:37:09.725Z,93.41
2019-04-30T03:39:42.503Z,93.26
2019-04-30T03:42:16.046Z,93.43
2019-04-30T03:44:49.896Z,93.99
2019-04-30T03:47:23.265Z,94.29
2019-04-30T03:49:59.855Z,94.41
2019-04-30T03:52:31.805Z,94.18
2019-04-30T03:55:09.073Z,94.01
2019-04-30T03:57:41.573Z,93.75
2019-04-30T04:00:16.782Z,93.76
2019-04-30T04:02:50.366Z,94.10
2019-04-30T04:05:29.910Z,93.68
2019-04-30T04:08:19.449Z,94.00
2019-04-30T04:11:00.545Z,93.49
2019-04-30T04:13:34.127Z,93.84
2019-04-30T04:16:09.649Z,93.79
2019-04-30T04:18:42.664Z,93.69
2019-04-30T04:21:17.184Z,92.91
2019-04-30T04:23:51.252Z,92.73
2019-04-30T04:26:24.659Z,92.36
2019-04-30T04:28:59.463Z,92.02
2019-04-30T04:31:32.960Z,92.27
2019-04-30T04:34:08.814Z,92.33
2019-04-30T04:36:43.468Z,91.47
2019-04-30T04:39:16.805Z,90.97
2019-04-30T04:41:50.648Z,90.66
2019-04-30T04:44:24.297Z,90.40
2019-04-30T04:46:59.985Z,90.40
2019-04-30T04:49:32.917Z,90.24
2019-04-30T04:52:06.447Z,90.28
2019-04-30T04:54:40.090Z,90.32
2019-04-30T04:57:18.004Z,89.32
2019-04-30T04:59:49.890Z,89.09
2019-04-30T05:02:41.106Z,89.67
2019-04-30T05:05:14.627Z,88.29
2019-04-30T05:07:48.650Z,87.51
2019-04-30T05:10:22.218Z,87.25
2019-04-30T05:12:56.054Z,86.96
2019-04-30T05:15:29.717Z,86.17
2019-04-30T05:18:03.297Z,86.02
2019-04-30T05:20:39.834Z,85.37
2019-04-30T05:23:12.166Z,84.88
2019-04-30T05:25:45.608Z,85.58
2019-04-30T05:28:19.260Z,84.43
2019-04-30T05:30:52.772Z,84.50
2019-04-30T05:33:26.354Z,84.12
2019-04-30T05:35:59.876Z,83.21
2019-04-30T05:38:33.350Z,83.62
2019-04-30T05:41:09.201Z,83.49
2019-04-30T05:43:42.731Z,83.05
2019-04-30T05:46:16.382Z,82.22
2019-04-30T05:48:50.068Z,83.17
2019-04-30T05:51:23.599Z,82.46
2019-04-30T05:53:59.112Z,82.33
2019-04-30T05:56:32.469Z,81.81
2019-04-30T05:59:05.999Z,82.74
2019-04-30T06:01:39.671Z,81.17
2019-04-30T06:04:13.338Z,82.61
2019-04-30T06:06:48.670Z,81.64
2019-04-30T06:09:38.538Z,82.37
2019-04-30T06:12:31.392Z,81.99
2019-04-30T06:15:09.044Z,81.21
2019-04-30T06:18:00.914Z,81.70
2019-04-30T06:20:29.022Z,81.66
2019-04-30T06:23:02.545Z,80.22
2019-04-30T06:25:52.911Z,81.18
2019-04-30T06:28:12.133Z,82.19
2019-04-30T06:30:45.795Z,80.93
2019-04-30T06:33:19.447Z,81.59
2019-04-30T06:35:53.621Z,81.83
2019-04-30T06:38:29.060Z,81.93
2019-04-30T06:41:03.418Z,81.34
2019-04-30T06:43:38.666Z,81.41
2019-04-30T06:46:12.433Z,80.81
2019-04-30T06:48:48.663Z,80.39
2019-04-30T06:51:21.549Z,79.59
2019-04-30T06:53:54.998Z,79.12
2019-04-30T06:56:28.973Z,79.73
2019-04-30T06:59:02.664Z,79.07
2019-04-30T07:01:36.211Z,79.23
2019-04-30T07:04:10.480Z,76.93
2019-04-30T07:06:45.270Z,76.80
2019-04-30T07:09:51.417Z,77.91
2019-04-30T07:12:22.933Z,78.49
2019-04-30T07:14:49.452Z,77.04
2019-04-30T07:17:23.223Z,78.70
2019-04-30T07:19:57.007Z,76.70
2019-04-30T07:22:39.588Z,74.71
2019-04-30T07:25:09.389Z,75.17
2019-04-30T07:27:42.545Z,73.68
2019-04-30T07:30:16.118Z,73.39
2019-04-30T07:32:49.693Z,69.65
2019-04-30T07:35:23.365Z,66.28
2019-04-30T07:38:00.638Z,62.93
2019-04-30T07:40:32.305Z,65.15
2019-04-30T07:43:05.929Z,64.97
2019-04-30T07:45:39.902Z,66.83
2019-04-30T07:48:13.445Z,63.24
2019-04-30T07:50:51.477Z,63.64
2019-04-30T07:53:22.474Z,66.11
2019-04-30T07:55:56.006Z,66.22
2019-04-30T07:58:29.950Z,64.65
2019-04-30T08:01:03.644Z,61.13
2019-04-30T08:03:50.042Z,63.09
2019-04-30T08:06:22.951Z,61.55
2019-04-30T08:08:59.845Z,60.10
2019-04-30T08:11:34.502Z,55.85
2019-04-30T08:14:07.305Z,56.71
2019-04-30T08:16:40.818Z,55.88
2019-04-30T08:19:14.295Z,56.33
2019-04-30T08:21:48.587Z,56.60
2019-04-30T08:24:22.450Z,54.84
2019-04-30T08:26:56.024Z,54.34
2019-04-30T08:29:29.563Z,54.99
2019-04-30T08:32:02.878Z,54.42
2019-04-30T08:34:36.427Z,53.31
2019-04-30T08:37:17.073Z,52.17
2019-04-30T08:39:45.231Z,51.38
2019-04-30T08:42:28.961Z,51.37
2019-04-30T08:44:54.013Z,52.01
2019-04-30T08:47:29.152Z,51.77
2019-04-30T08:50:03.407Z,52.21
2019-04-30T08:52:39.307Z,52.22
2019-04-30T08:55:16.537Z,51.48
2019-04-30T08:57:49.850Z,49.38
2019-04-30T09:00:23.191Z,49.57
2019-04-30T09:02:56.773Z,47.76
2019-04-30T09:05:35.236Z,48.22
2019-04-30T09:08:10.641Z,47.05
2019-04-30T09:10:44.260Z,46.71
2019-04-30T09:13:19.213Z,46.38
2019-04-30T09:15:52.966Z,48.25
2019-04-30T09:18:29.033Z,45.88
2019-04-30T09:21:06.223Z,44.74
2019-04-30T09:23:44.680Z,42.91
2019-04-30T09:26:12.829Z,44.13
2019-04-30T09:28:46.435Z,41.68
2019-04-30T09:31:20.026Z,42.77
2019-04-30T09:33:53.485Z,43.46
2019-04-30T09:36:29.076Z,42.16
2019-04-30T09:39:02.368Z,41.02
2019-04-30T09:41:35.855Z,40.23
2019-04-30T09:44:09.989Z,39.49
2019-04-30T09:46:43.664Z,39.49
2019-04-30T09:49:19.330Z,40.10
2019-04-30T09:51:52.728Z,38.67
2019-04-30T09:54:26.176Z,38.36
2019-04-30T09:56:59.612Z,38.61
2019-04-30T09:59:33.022Z,39.68
2019-04-30T10:02:09.218Z,40.53
2019-04-30T10:04:43.082Z,40.41
2019-04-30T10:07:16.799Z,40.15
2019-04-30T10:09:51.109Z,39.35
2019-04-30T10:12:24.653Z,37.08
2019-04-30T10:14:59.266Z,37.08
2019-04-30T10:17:34.754Z,38.58
2019-04-30T10:20:10.339Z,38.74
2019-04-30T10:22:43.893Z,38.74
2019-04-30T10:25:17.540Z,37.91
2019-04-30T10:27:51.107Z,39.10
2019-04-30T10:30:29.213Z,39.10
2019-04-30T10:33:03.159Z,38.31
2019-04-30T10:35:38.522Z,37.39
2019-04-30T10:38:12.132Z,39.03
2019-04-30T10:40:45.609Z,39.03
2019-04-30T10:43:19.797Z,38.42
2019-04-30T10:45:53.298Z,39.13
2019-04-30T10:48:26.812Z,38.00
2019-04-30T10:51:00.537Z,40.06
2019-04-30T10:53:34.012Z,39.61
2019-04-30T10:56:09.602Z,39.61
2019-04-30T10:58:43.013Z,37.69
2019-04-30T11:01:16.613Z,37.95
2019-04-30T11:03:50.254Z,37.95
2019-04-30T11:06:23.953Z,38.04
2019-04-30T11:08:57.469Z,37.13
2019-04-30T11:11:30.941Z,37.13
2019-04-30T11:14:04.679Z,36.49
2019-04-30T11:16:38.031Z,36.96
2019-04-30T11:19:11.758Z,36.61
2019-04-30T11:21:45.656Z,36.61
2019-04-30T11:24:19.688Z,37.13
2019-04-30T11:26:54.516Z,35.66
2019-04-30T11:30:03.318Z,35.87
2019-04-30T11:32:40.674Z,36.52
2019-04-30T11:35:14.957Z,36.20
2019-04-30T11:37:49.002Z,36.54
2019-04-30T11:40:34.034Z,37.20
2019-04-30T11:43:04.136Z,37.64
2019-04-30T11:45:56.188Z,35.53
2019-04-30T11:48:29.837Z,35.42
2019-04-30T11:51:03.507Z,35.69
2019-04-30T11:53:38.947Z,35.53
2019-04-30T11:56:12.638Z,34.84
2019-04-30T11:58:46.353Z,34.48
2019-04-30T12:01:27.295Z,34.50
2019-04-30T12:04:00.745Z,34.08
2019-04-30T12:06:34.353Z,33.56
2019-04-30T12:09:12.796Z,33.93
2019-04-30T12:11:50.518Z,32.94
2019-04-30T12:14:23.114Z,32.28
2019-04-30T12:16:56.757Z,32.25
2019-04-30T12:19:30.226Z,31.70
2019-04-30T12:22:03.600Z,31.14
2019-04-30T12:24:38.830Z,32.85
2019-04-30T12:27:12.698Z,31.72
2019-04-30T12:29:46.497Z,29.96
2019-04-30T12:32:21.365Z,30.21
2019-04-30T12:34:58.363Z,31.39
2019-04-30T12:37:32.078Z,30.67
2019-04-30T12:40:09.526Z,32.04
2019-04-30T12:42:44.194Z,32.06
2019-04-30T12:45:19.455Z,32.82
2019-04-30T12:47:57.618Z,30.68
2019-04-30T12:50:45.150Z,30.51
2019-04-30T12:53:37.546Z,29.95
2019-04-30T12:56:27.149Z,31.45
2019-04-30T12:58:57.406Z,30.88
2019-04-30T13:01:33.923Z,29.56
2019-04-30T13:04:09.776Z,29.48
2019-04-30T13:06:44.144Z,30.46
2019-04-30T13:09:20.209Z,29.75
2019-04-30T13:11:54.301Z,28.33
2019-04-30T13:14:30.150Z,27.99
2019-04-30T13:17:03.716Z,27.88
2019-04-30T13:19:37.312Z,28.58
2019-04-30T13:22:11.378Z,28.32
2019-04-30T13:24:44.961Z,28.56
2019-04-30T13:27:19.611Z,27.68
2019-04-30T13:30:01.595Z,28.79
2019-04-30T13:32:36.694Z,27.51
2019-04-30T13:35:10.866Z,26.54
2019-04-30T13:38:00.995Z,27.00
2019-04-30T13:40:39.151Z,28.73
2019-04-30T13:43:14.318Z,28.75
2019-04-30T13:45:48.707Z,29.25
2019-04-30T13:48:23.094Z,28.89
2019-04-30T13:50:56.774Z,29.56
2019-04-30T13:53:30.751Z,29.13
2019-04-30T13:56:04.584Z,27.86
2019-04-30T13:58:38.271Z,28.55
2019-04-30T14:01:11.852Z,28.85
2019-04-30T14:04:02.229Z,27.64
2019-04-30T14:06:40.192Z,27.18
2019-04-30T14:09:30.268Z,26.76
2019-04-30T14:12:03.899Z,25.80
2019-04-30T14:14:39.437Z,26.34
2019-04-30T14:17:12.884Z,25.83
2019-04-30T14:19:46.430Z,25.30
2019-04-30T14:22:19.957Z,26.47
2019-04-30T14:24:53.579Z,27.77
2019-04-30T14:27:27.114Z,27.13
2019-04-30T14:30:01.236Z,27.67
2019-04-30T14:32:34.782Z,28.10
2019-04-30T14:35:09.226Z,27.87
2019-04-30T14:37:42.956Z,27.36
2019-04-30T14:40:20.286Z,27.46
2019-04-30T14:43:02.159Z,27.44
2019-04-30T14:45:57.165Z,26.37
2019-04-30T14:48:35.486Z,26.22
2019-04-30T14:51:40.228Z,25.86
2019-04-30T14:54:17.319Z,27.92
2019-04-30T14:56:55.804Z,26.53
2019-04-30T14:59:49.111Z,26.93
2019-04-30T15:02:29.443Z,28.48
2019-04-30T15:05:40.551Z,26.70
2019-04-30T15:08:05.784Z,27.42
2019-04-30T15:10:41.419Z,27.25
2019-04-30T15:13:21.678Z,27.31
2019-04-30T15:16:02.196Z,28.37
2019-04-30T15:19:11.926Z,27.90
2019-04-30T15:21:46.765Z,28.12
2019-04-30T15:31:05.941Z,27.11
2019-04-30T15:33:41.554Z,27.63
2019-04-30T15:36:15.502Z,27.54
2019-04-30T15:39:19.535Z,28.64
2019-04-30T15:42:05.301Z,28.18
2019-04-30T15:44:43.268Z,27.12
2019-04-30T15:47:28.825Z,28.27
2019-04-30T15:50:02.382Z,27.60
2019-04-30T15:52:35.880Z,28.73
2019-04-30T15:55:12.127Z,27.75
2019-04-30T15:57:49.490Z,26.49
2019-04-30T16:00:23.192Z,26.42
2019-04-30T16:03:00.137Z,28.32
2019-04-30T16:05:44.259Z,27.63
2019-04-30T16:08:22.154Z,27.56
2019-04-30T16:11:10.497Z,28.36
2019-04-30T16:13:49.523Z,27.09
2019-04-30T16:16:23.666Z,27.10
2019-04-30T16:18:58.803Z,28.86
2019-04-30T16:21:32.250Z,28.67
2019-04-30T16:24:05.967Z,28.12
2019-04-30T16:26:49.303Z,27.48
2019-04-30T16:29:14.783Z,28.61
2019-04-30T16:31:49.475Z,29.10
2019-04-30T16:34:23.346Z,29.00
2019-04-30T16:36:56.815Z,29.29
2019-04-30T16:39:30.219Z,29.79
2019-04-30T16:42:03.812Z,28.79
2019-04-30T16:44:37.298Z,28.72
2019-04-30T16:47:16.041Z,28.85
2019-04-30T16:49:45.997Z,29.75
2019-04-30T16:52:19.581Z,28.83
2019-04-30T16:54:53.275Z,29.92
2019-04-30T16:57:30.117Z,29.41
2019-04-30T17:00:02.702Z,30.98
2019-04-30T17:02:39.287Z,30.32
2019-04-30T17:05:14.605Z,29.55
2019-04-30T17:07:52.858Z,29.56
2019-04-30T17:10:30.999Z,29.72
2019-04-30T17:13:09.336Z,30.33
2019-04-30T17:15:44.536Z,30.14
2019-04-30T17:18:19.062Z,30.52
2019-04-30T17:20:52.678Z,30.76
2019-04-30T17:23:26.193Z,31.61
2019-04-30T17:25:59.926Z,34.05
2019-04-30T17:28:33.411Z,35.47
2019-04-30T17:31:06.916Z,35.70
2019-04-30T17:33:40.497Z,36.65
2019-04-30T17:36:13.893Z,35.80
2019-04-30T17:38:47.431Z,35.91
2019-04-30T17:41:20.882Z,36.84
2019-04-30T17:43:54.312Z,36.20
2019-04-30T17:46:28.541Z,36.86
2019-04-30T17:49:01.969Z,37.22
2019-04-30T17:51:35.459Z,37.63
2019-04-30T17:54:18.240Z,37.84
2019-04-30T17:56:51.707Z,38.28
2019-04-30T17:59:25.146Z,39.02
2019-04-30T18:02:00.326Z,38.89
2019-04-30T18:04:33.891Z,39.74
2019-04-30T18:07:09.855Z,40.39
2019-04-30T18:09:42.814Z,40.68
2019-04-30T18:12:16.437Z,41.15
2019-04-30T18:14:49.932Z,41.46
2019-04-30T18:17:25.052Z,41.49
2019-04-30T18:20:00.367Z,42.47
2019-04-30T18:22:51.712Z,43.24
2019-04-30T18:25:26.819Z,43.72
2019-04-30T18:28:06.550Z,44.42
2019-04-30T18:30:41.708Z,44.80
2019-04-30T18:33:15.240Z,45.40
2019-04-30T18:35:48.793Z,45.63
2019-04-30T18:38:22.299Z,45.84
2019-04-30T18:40:55.744Z,45.54
2019-04-30T18:43:29.352Z,45.77
2019-04-30T18:46:02.969Z,45.86
2019-04-30T18:48:36.521Z,45.97
2019-04-30T18:51:29.871Z,46.14
2019-04-30T18:53:47.002Z,46.40
2019-04-30T18:56:20.695Z,46.75
2019-04-30T18:58:54.212Z,46.99
2019-04-30T19:01:27.761Z,47.34
2019-04-30T19:04:01.319Z,47.65
2019-04-30T19:06:34.828Z,47.87
2019-04-30T19:09:29.642Z,48.07
2019-04-30T19:12:08.537Z,48.34
2019-04-30T19:14:45.240Z,48.55
2019-04-30T19:17:36.403Z,49.12
2019-04-30T19:20:14.396Z,49.83
2019-04-30T19:22:47.787Z,50.38
2019-04-30T19:25:21.438Z,50.94
2019-04-30T19:27:55.141Z,50.83
2019-04-30T19:30:29.296Z,50.73
2019-04-30T19:33:04.702Z,50.79
2019-04-30T19:35:38.262Z,51.30
2019-04-30T19:38:12.831Z,51.81
2019-04-30T19:40:46.392Z,52.45
2019-04-30T19:43:20.155Z,52.63
2019-04-30T19:45:53.700Z,52.97
2019-04-30T19:48:27.502Z,53.62
2019-04-30T19:51:01.381Z,54.10
2019-04-30T19:53:35.365Z,54.59
2019-04-30T19:56:09.085Z,55.30
2019-04-30T19:58:54.366Z,55.66
2019-04-30T20:01:18.021Z,56.06
2019-04-30T20:03:51.697Z,56.50
2019-04-30T20:06:25.358Z,56.73
2019-04-30T20:09:00.716Z,57.21
2019-04-30T20:11:35.187Z,57.90
2019-04-30T20:14:10.469Z,58.48
2019-04-30T20:16:44.102Z,58.99
2019-04-30T20:19:17.656Z,59.40
2019-04-30T20:21:53.903Z,59.43
2019-04-30T20:24:29.583Z,58.53
2019-04-30T20:27:07.065Z,57.93
2019-04-30T20:29:40.797Z,57.85
2019-04-30T20:32:14.132Z,57.41
2019-04-30T20:34:48.931Z,57.72
2019-04-30T20:37:22.767Z,57.01
2019-04-30T20:40:16.220Z,57.49
2019-04-30T20:42:50.209Z,57.93
2019-04-30T20:45:24.223Z,58.46
2019-04-30T20:47:59.227Z,58.85
2019-04-30T20:50:32.889Z,59.19
2019-04-30T20:53:08.720Z,58.78
2019-04-30T20:55:41.888Z,59.01
2019-04-30T20:58:15.457Z,59.23
2019-04-30T21:01:00.479Z,59.76
2019-04-30T21:03:24.808Z,59.98
2019-04-30T21:06:00.384Z,60.09
2019-04-30T21:08:33.681Z,60.47
2019-04-30T21:11:09.279Z,60.52
2019-04-30T21:13:42.684Z,60.51
2019-04-30T21:16:16.243Z,61.30
2019-04-30T21:18:49.794Z,61.30
2019-04-30T21:21:23.431Z,61.06
2019-04-30T21:23:57.033Z,61.06
2019-04-30T21:26:30.581Z,61.29
2019-04-30T21:29:13.694Z,61.74
2019-04-30T21:31:42.921Z,61.50
2019-04-30T21:34:19.587Z,61.78
2019-04-30T21:36:53.484Z,61.53
2019-04-30T21:39:27.100Z,61.45
2019-04-30T21:42:00.629Z,61.35
2019-04-30T21:44:34.213Z,61.22
2019-04-30T21:47:07.810Z,61.18
2019-04-30T21:49:41.376Z,61.19
2019-04-30T21:52:14.912Z,61.41
2019-04-30T21:54:48.714Z,61.55
2019-04-30T21:57:22.150Z,61.20
2019-04-30T21:59:55.709Z,61.09
2019-04-30T22:02:29.545Z,61.05
2019-04-30T22:05:03.353Z,60.94
2019-04-30T22:07:36.905Z,60.35
2019-04-30T22:10:10.630Z,59.67
2019-04-30T22:12:44.172Z,59.67
2019-04-30T22:15:17.891Z,59.92
2019-04-30T22:17:51.496Z,60.15
2019-04-30T22:20:25.073Z,60.44
2019-04-30T22:22:58.574Z,62.22
2019-04-30T22:25:32.221Z,66.79
2019-04-30T22:28:05.859Z,68.22
2019-04-30T22:30:39.493Z,69.17
2019-04-30T22:33:13.111Z,70.56
2019-04-30T22:35:54.160Z,70.89
2019-04-30T22:38:44.762Z,70.23
2019-04-30T22:41:19.917Z,69.89
2019-04-30T22:43:53.455Z,70.95
2019-04-30T22:46:27.050Z,72.07
2019-04-30T22:49:00.554Z,72.09
2019-04-30T22:51:34.070Z,72.54
2019-04-30T22:54:07.653Z,72.91
2019-04-30T22:56:41.228Z,73.16
2019-04-30T22:59:14.781Z,73.46
2019-04-30T23:01:52.820Z,74.26
2019-04-30T23:04:28.064Z,74.68
2019-04-30T23:07:01.575Z,75.03
2019-04-30T23:09:35.181Z,75.39
2019-04-30T23:12:08.859Z,75.40
2019-04-30T23:14:42.317Z,75.74
2019-04-30T23:17:15.958Z,75.86
2019-04-30T23:19:49.764Z,76.00
2019-04-30T23:22:23.350Z,75.56
2019-04-30T23:24:56.904Z,75.47
2019-04-30T23:27:30.628Z,74.91
2019-04-30T23:30:05.347Z,74.34
2019-04-30T23:32:38.910Z,75.02
2019-04-30T23:35:12.634Z,73.40
2019-04-30T23:37:46.188Z,72.85
2019-04-30T23:40:28.389Z,71.50
2019-04-30T23:43:01.937Z,72.06
2019-04-30T23:45:35.550Z,72.00
2019-04-30T23:48:09.055Z,71.03
2019-04-30T23:50:42.738Z,72.30
2019-04-30T23:53:16.398Z,73.40
2019-04-30T23:55:49.949Z,74.30
2019-04-30T23:58:23.501Z,74.06
